sensor_id;sensor_type;location;lat;lon;timestamp;temperature;humidity
21580;DHT22;10951;59.656;9.666;2023-05-02T00:01:25;1.80;99.10
21580;DHT22;10951;59.656;9.666;2023-05-02T00:03:52;1.80;99.00
21580;DHT22;10951;59.656;9.666;2023-05-02T00:06:19;1.80;99.00
21580;DHT22;10951;59.656;9.666;2023-05-02T00:08:47;1.70;99.10
21580;DHT22;10951;59.656;9.666;2023-05-02T00:11:14;1.70;99.10
21580;DHT22;10951;59.656;9.666;2023-05-02T00:13:41;1.70;99.20
21580;DHT22;10951;59.656;9.666;2023-05-02T00:16:09;1.60;99.40
21580;DHT22;10951;59.656;9.666;2023-05-02T00:18:37;1.60;99.20
21580;DHT22;10951;59.656;9.666;2023-05-02T00:21:03;1.60;98.70
21580;DHT22;10951;59.656;9.666;2023-05-02T00:23:30;1.60;98.40
21580;DHT22;10951;59.656;9.666;2023-05-02T00:25:57;1.60;98.40
21580;DHT22;10951;59.656;9.666;2023-05-02T00:28:24;1.50;98.40
21580;DHT22;10951;59.656;9.666;2023-05-02T00:30:52;1.50;98.10
21580;DHT22;10951;59.656;9.666;2023-05-02T00:33:19;1.50;98.10
21580;DHT22;10951;59.656;9.666;2023-05-02T00:35:46;1.50;97.90
21580;DHT22;10951;59.656;9.666;2023-05-02T00:38:13;1.50;97.80
21580;DHT22;10951;59.656;9.666;2023-05-02T00:43:10;1.50;97.80
21580;DHT22;10951;59.656;9.666;2023-05-02T00:45:38;1.40;97.70
21580;DHT22;10951;59.656;9.666;2023-05-02T00:48:06;1.40;97.70
21580;DHT22;10951;59.656;9.666;2023-05-02T00:50:38;1.40;97.80
21580;DHT22;10951;59.656;9.666;2023-05-02T00:53:06;1.30;97.90
21580;DHT22;10951;59.656;9.666;2023-05-02T00:55:33;1.30;98.00
21580;DHT22;10951;59.656;9.666;2023-05-02T00:58:13;1.20;98.00
21580;DHT22;10951;59.656;9.666;2023-05-02T01:01:01;1.20;98.00
21580;DHT22;10951;59.656;9.666;2023-05-02T01:03:38;1.20;98.10
21580;DHT22;10951;59.656;9.666;2023-05-02T01:06:10;1.10;98.20
21580;DHT22;10951;59.656;9.666;2023-05-02T01:08:42;1.10;98.00
21580;DHT22;10951;59.656;9.666;2023-05-02T01:11:13;1.20;98.00
21580;DHT22;10951;59.656;9.666;2023-05-02T01:13:42;1.10;97.90
21580;DHT22;10951;59.656;9.666;2023-05-02T01:16:10;1.00;97.80
21580;DHT22;10951;59.656;9.666;2023-05-02T01:18:37;1.10;98.00
21580;DHT22;10951;59.656;9.666;2023-05-02T01:21:07;1.00;98.00
21580;DHT22;10951;59.656;9.666;2023-05-02T01:29:07;0.90;97.60
21580;DHT22;10951;59.656;9.666;2023-05-02T01:31:35;0.80;97.90
21580;DHT22;10951;59.656;9.666;2023-05-02T01:34:04;0.80;97.80
21580;DHT22;10951;59.656;9.666;2023-05-02T01:36:32;0.80;97.70
21580;DHT22;10951;59.656;9.666;2023-05-02T01:39:00;0.70;97.60
21580;DHT22;10951;59.656;9.666;2023-05-02T01:41:28;0.80;97.30
21580;DHT22;10951;59.656;9.666;2023-05-02T01:43:56;0.80;96.90
21580;DHT22;10951;59.656;9.666;2023-05-02T01:46:24;0.90;95.60
21580;DHT22;10951;59.656;9.666;2023-05-02T01:48:52;1.10;94.80
21580;DHT22;10951;59.656;9.666;2023-05-02T01:51:21;1.10;94.30
21580;DHT22;10951;59.656;9.666;2023-05-02T01:53:49;1.00;94.20
21580;DHT22;10951;59.656;9.666;2023-05-02T01:56:17;0.90;94.30
21580;DHT22;10951;59.656;9.666;2023-05-02T01:58:45;0.90;94.50
21580;DHT22;10951;59.656;9.666;2023-05-02T02:01:13;0.90;94.80
21580;DHT22;10951;59.656;9.666;2023-05-02T02:03:41;0.80;94.90
21580;DHT22;10951;59.656;9.666;2023-05-02T02:06:08;0.90;95.50
21580;DHT22;10951;59.656;9.666;2023-05-02T02:08:35;0.80;94.90
21580;DHT22;10951;59.656;9.666;2023-05-02T02:11:03;0.80;94.90
21580;DHT22;10951;59.656;9.666;2023-05-02T02:13:36;0.70;94.90
21580;DHT22;10951;59.656;9.666;2023-05-02T02:16:03;0.60;95.20
21580;DHT22;10951;59.656;9.666;2023-05-02T02:18:37;0.50;95.30
21580;DHT22;10951;59.656;9.666;2023-05-02T02:21:05;0.40;95.40
21580;DHT22;10951;59.656;9.666;2023-05-02T02:23:33;0.40;95.40
21580;DHT22;10951;59.656;9.666;2023-05-02T02:26:02;0.40;95.60
21580;DHT22;10951;59.656;9.666;2023-05-02T02:28:29;0.30;95.80
21580;DHT22;10951;59.656;9.666;2023-05-02T02:30:57;0.30;96.30
21580;DHT22;10951;59.656;9.666;2023-05-02T02:33:24;0.30;96.10
21580;DHT22;10951;59.656;9.666;2023-05-02T02:36:07;0.30;96.20
21580;DHT22;10951;59.656;9.666;2023-05-02T02:38:41;0.30;96.20
21580;DHT22;10951;59.656;9.666;2023-05-02T02:41:11;0.30;95.90
21580;DHT22;10951;59.656;9.666;2023-05-02T02:46:16;0.40;95.70
21580;DHT22;10951;59.656;9.666;2023-05-02T02:51:30;0.30;95.10
21580;DHT22;10951;59.656;9.666;2023-05-02T02:56:38;0.10;95.50
21580;DHT22;10951;59.656;9.666;2023-05-02T02:59:19;0.10;95.90
21580;DHT22;10951;59.656;9.666;2023-05-02T03:02:01;0.10;95.30
21580;DHT22;10951;59.656;9.666;2023-05-02T03:04:30;0.00;95.60
21580;DHT22;10951;59.656;9.666;2023-05-02T03:06:58;0.00;95.80
21580;DHT22;10951;59.656;9.666;2023-05-02T03:09:26;0.00;95.60
21580;DHT22;10951;59.656;9.666;2023-05-02T03:11:56;-0.10;95.70
21580;DHT22;10951;59.656;9.666;2023-05-02T03:14:24;-0.20;95.70
21580;DHT22;10951;59.656;9.666;2023-05-02T03:16:51;-0.20;96.00
21580;DHT22;10951;59.656;9.666;2023-05-02T03:19:18;-0.30;95.70
21580;DHT22;10951;59.656;9.666;2023-05-02T03:21:46;-0.30;96.10
21580;DHT22;10951;59.656;9.666;2023-05-02T03:24:17;-0.40;96.40
21580;DHT22;10951;59.656;9.666;2023-05-02T03:26:45;-0.30;96.50
21580;DHT22;10951;59.656;9.666;2023-05-02T03:29:16;-0.30;96.30
21580;DHT22;10951;59.656;9.666;2023-05-02T03:31:43;-0.40;96.30
21580;DHT22;10951;59.656;9.666;2023-05-02T03:34:10;-0.40;96.60
21580;DHT22;10951;59.656;9.666;2023-05-02T03:36:37;-0.40;96.60
21580;DHT22;10951;59.656;9.666;2023-05-02T03:39:04;-0.40;96.90
21580;DHT22;10951;59.656;9.666;2023-05-02T03:41:32;-0.30;96.60
21580;DHT22;10951;59.656;9.666;2023-05-02T03:44:04;-0.30;96.40
21580;DHT22;10951;59.656;9.666;2023-05-02T03:46:32;-0.40;96.40
21580;DHT22;10951;59.656;9.666;2023-05-02T03:49:00;-0.40;96.60
21580;DHT22;10951;59.656;9.666;2023-05-02T03:51:27;-0.40;96.40
21580;DHT22;10951;59.656;9.666;2023-05-02T03:53:56;-0.50;96.30
21580;DHT22;10951;59.656;9.666;2023-05-02T03:56:24;-0.60;96.50
21580;DHT22;10951;59.656;9.666;2023-05-02T03:59:01;-0.50;96.70
21580;DHT22;10951;59.656;9.666;2023-05-02T04:01:29;-0.40;95.50
21580;DHT22;10951;59.656;9.666;2023-05-02T04:03:58;-0.30;95.70
21580;DHT22;10951;59.656;9.666;2023-05-02T04:06:29;-0.30;96.00
21580;DHT22;10951;59.656;9.666;2023-05-02T04:09:01;-0.30;95.90
21580;DHT22;10951;59.656;9.666;2023-05-02T04:11:34;-0.30;95.70
21580;DHT22;10951;59.656;9.666;2023-05-02T04:14:03;-0.40;95.70
21580;DHT22;10951;59.656;9.666;2023-05-02T04:16:30;-0.40;96.40
21580;DHT22;10951;59.656;9.666;2023-05-02T04:18:57;-0.40;96.50
21580;DHT22;10951;59.656;9.666;2023-05-02T04:21:25;-0.40;96.50
21580;DHT22;10951;59.656;9.666;2023-05-02T04:23:51;-0.40;96.70
21580;DHT22;10951;59.656;9.666;2023-05-02T04:26:19;-0.30;97.10
21580;DHT22;10951;59.656;9.666;2023-05-02T04:28:52;-0.30;96.90
21580;DHT22;10951;59.656;9.666;2023-05-02T04:31:19;-0.30;96.70
21580;DHT22;10951;59.656;9.666;2023-05-02T04:33:47;-0.20;96.20
21580;DHT22;10951;59.656;9.666;2023-05-02T04:36:17;-0.10;96.70
21580;DHT22;10951;59.656;9.666;2023-05-02T04:38:48;0.30;95.60
21580;DHT22;10951;59.656;9.666;2023-05-02T04:41:16;0.50;94.90
21580;DHT22;10951;59.656;9.666;2023-05-02T04:43:50;0.60;94.60
21580;DHT22;10951;59.656;9.666;2023-05-02T04:46:17;0.80;94.40
21580;DHT22;10951;59.656;9.666;2023-05-02T04:48:45;1.20;94.40
21580;DHT22;10951;59.656;9.666;2023-05-02T04:51:12;1.70;93.90
21580;DHT22;10951;59.656;9.666;2023-05-02T04:53:44;2.20;92.60
21580;DHT22;10951;59.656;9.666;2023-05-02T04:56:11;2.60;90.70
21580;DHT22;10951;59.656;9.666;2023-05-02T04:58:38;3.10;90.60
21580;DHT22;10951;59.656;9.666;2023-05-02T05:01:08;3.50;90.50
21580;DHT22;10951;59.656;9.666;2023-05-02T05:03:35;3.80;89.00
21580;DHT22;10951;59.656;9.666;2023-05-02T05:06:03;4.20;87.40
21580;DHT22;10951;59.656;9.666;2023-05-02T05:08:32;4.50;85.30
21580;DHT22;10951;59.656;9.666;2023-05-02T05:10:59;4.80;82.40
21580;DHT22;10951;59.656;9.666;2023-05-02T05:13:26;5.10;80.20
21580;DHT22;10951;59.656;9.666;2023-05-02T05:15:54;5.30;76.80
21580;DHT22;10951;59.656;9.666;2023-05-02T05:18:25;5.40;75.60
21580;DHT22;10951;59.656;9.666;2023-05-02T05:20:52;5.40;72.40
21580;DHT22;10951;59.656;9.666;2023-05-02T05:23:19;5.50;72.80
21580;DHT22;10951;59.656;9.666;2023-05-02T05:25:46;5.70;73.10
21580;DHT22;10951;59.656;9.666;2023-05-02T05:28:16;5.90;72.20
21580;DHT22;10951;59.656;9.666;2023-05-02T05:30:44;6.00;70.20
21580;DHT22;10951;59.656;9.666;2023-05-02T05:33:16;6.10;68.90
21580;DHT22;10951;59.656;9.666;2023-05-02T05:35:43;6.10;69.70
21580;DHT22;10951;59.656;9.666;2023-05-02T05:38:10;6.30;66.90
21580;DHT22;10951;59.656;9.666;2023-05-02T05:40:40;6.50;66.30
21580;DHT22;10951;59.656;9.666;2023-05-02T05:43:08;6.80;66.10
21580;DHT22;10951;59.656;9.666;2023-05-02T05:45:37;7.00;64.00
21580;DHT22;10951;59.656;9.666;2023-05-02T05:48:04;7.10;63.20
21580;DHT22;10951;59.656;9.666;2023-05-02T05:50:37;7.20;62.30
21580;DHT22;10951;59.656;9.666;2023-05-02T05:53:04;7.30;62.50
21580;DHT22;10951;59.656;9.666;2023-05-02T05:55:32;7.60;63.60
21580;DHT22;10951;59.656;9.666;2023-05-02T05:58:03;7.80;62.40
21580;DHT22;10951;59.656;9.666;2023-05-02T06:00:34;8.00;59.40
21580;DHT22;10951;59.656;9.666;2023-05-02T06:03:01;8.20;59.10
21580;DHT22;10951;59.656;9.666;2023-05-02T06:05:31;8.40;59.10
21580;DHT22;10951;59.656;9.666;2023-05-02T06:07:58;8.60;58.50
21580;DHT22;10951;59.656;9.666;2023-05-02T06:10:25;8.70;57.50
21580;DHT22;10951;59.656;9.666;2023-05-02T06:12:52;9.00;57.30
21580;DHT22;10951;59.656;9.666;2023-05-02T06:15:24;9.10;56.90
21580;DHT22;10951;59.656;9.666;2023-05-02T06:17:51;9.40;56.90
21580;DHT22;10951;59.656;9.666;2023-05-02T06:20:18;9.50;55.90
21580;DHT22;10951;59.656;9.666;2023-05-02T06:22:45;9.50;53.80
21580;DHT22;10951;59.656;9.666;2023-05-02T06:25:12;9.20;54.10
21580;DHT22;10951;59.656;9.666;2023-05-02T06:27:39;9.10;54.30
21580;DHT22;10951;59.656;9.666;2023-05-02T06:30:06;9.20;53.70
21580;DHT22;10951;59.656;9.666;2023-05-02T06:32:33;9.40;52.30
21580;DHT22;10951;59.656;9.666;2023-05-02T06:35:00;9.70;52.00
21580;DHT22;10951;59.656;9.666;2023-05-02T06:37:31;9.70;50.00
21580;DHT22;10951;59.656;9.666;2023-05-02T06:39:58;9.90;50.70
21580;DHT22;10951;59.656;9.666;2023-05-02T06:42:25;10.10;49.00
21580;DHT22;10951;59.656;9.666;2023-05-02T06:44:52;10.20;48.20
21580;DHT22;10951;59.656;9.666;2023-05-02T06:47:18;10.20;47.60
21580;DHT22;10951;59.656;9.666;2023-05-02T06:49:46;10.10;47.80
21580;DHT22;10951;59.656;9.666;2023-05-02T06:52:12;10.00;48.20
21580;DHT22;10951;59.656;9.666;2023-05-02T06:54:39;9.90;47.20
21580;DHT22;10951;59.656;9.666;2023-05-02T06:57:08;10.00;48.90
21580;DHT22;10951;59.656;9.666;2023-05-02T06:59:34;9.90;47.30
21580;DHT22;10951;59.656;9.666;2023-05-02T07:02:01;9.70;48.30
21580;DHT22;10951;59.656;9.666;2023-05-02T07:04:31;9.70;48.30
21580;DHT22;10951;59.656;9.666;2023-05-02T07:06:57;10.00;50.00
21580;DHT22;10951;59.656;9.666;2023-05-02T07:09:24;10.30;50.00
21580;DHT22;10951;59.656;9.666;2023-05-02T07:11:51;10.50;49.90
21580;DHT22;10951;59.656;9.666;2023-05-02T07:14:18;10.80;50.00
21580;DHT22;10951;59.656;9.666;2023-05-02T07:16:45;11.10;49.60
21580;DHT22;10951;59.656;9.666;2023-05-02T07:19:12;11.10;49.30
21580;DHT22;10951;59.656;9.666;2023-05-02T07:21:39;11.20;49.40
21580;DHT22;10951;59.656;9.666;2023-05-02T07:24:06;11.30;47.80
21580;DHT22;10951;59.656;9.666;2023-05-02T07:26:32;11.50;49.10
21580;DHT22;10951;59.656;9.666;2023-05-02T07:28:59;11.60;49.30
21580;DHT22;10951;59.656;9.666;2023-05-02T07:31:26;11.70;47.60
21580;DHT22;10951;59.656;9.666;2023-05-02T07:33:53;11.80;47.10
21580;DHT22;10951;59.656;9.666;2023-05-02T07:36:20;12.00;47.80
21580;DHT22;10951;59.656;9.666;2023-05-02T07:38:46;12.00;45.10
21580;DHT22;10951;59.656;9.666;2023-05-02T07:41:13;11.80;44.00
21580;DHT22;10951;59.656;9.666;2023-05-02T07:43:40;11.60;44.10
21580;DHT22;10951;59.656;9.666;2023-05-02T07:46:07;11.40;48.30
21580;DHT22;10951;59.656;9.666;2023-05-02T07:48:34;11.30;45.20
21580;DHT22;10951;59.656;9.666;2023-05-02T07:51:04;11.30;46.70
21580;DHT22;10951;59.656;9.666;2023-05-02T07:53:31;11.30;49.30
21580;DHT22;10951;59.656;9.666;2023-05-02T07:55:58;11.30;47.60
21580;DHT22;10951;59.656;9.666;2023-05-02T07:58:25;11.30;48.70
21580;DHT22;10951;59.656;9.666;2023-05-02T08:00:52;11.30;45.70
21580;DHT22;10951;59.656;9.666;2023-05-02T08:03:19;11.30;48.00
21580;DHT22;10951;59.656;9.666;2023-05-02T08:05:46;11.40;48.00
21580;DHT22;10951;59.656;9.666;2023-05-02T08:08:13;11.60;47.90
21580;DHT22;10951;59.656;9.666;2023-05-02T08:10:39;11.90;48.50
21580;DHT22;10951;59.656;9.666;2023-05-02T08:13:06;11.80;44.90
21580;DHT22;10951;59.656;9.666;2023-05-02T08:15:33;11.60;44.10
21580;DHT22;10951;59.656;9.666;2023-05-02T08:18:00;11.60;46.40
21580;DHT22;10951;59.656;9.666;2023-05-02T08:20:27;11.80;46.00
21580;DHT22;10951;59.656;9.666;2023-05-02T08:22:53;11.90;45.50
21580;DHT22;10951;59.656;9.666;2023-05-02T08:25:23;12.00;44.80
21580;DHT22;10951;59.656;9.666;2023-05-02T08:27:49;12.00;44.20
21580;DHT22;10951;59.656;9.666;2023-05-02T08:30:16;11.80;44.90
21580;DHT22;10951;59.656;9.666;2023-05-02T08:32:44;11.70;45.50
21580;DHT22;10951;59.656;9.666;2023-05-02T08:35:11;11.70;46.10
21580;DHT22;10951;59.656;9.666;2023-05-02T08:37:38;11.80;45.30
21580;DHT22;10951;59.656;9.666;2023-05-02T08:40:05;11.70;44.20
21580;DHT22;10951;59.656;9.666;2023-05-02T08:42:36;11.80;44.90
21580;DHT22;10951;59.656;9.666;2023-05-02T08:45:07;11.90;46.60
21580;DHT22;10951;59.656;9.666;2023-05-02T08:47:34;12.10;45.30
21580;DHT22;10951;59.656;9.666;2023-05-02T08:50:02;12.20;45.30
21580;DHT22;10951;59.656;9.666;2023-05-02T08:52:29;12.10;44.80
21580;DHT22;10951;59.656;9.666;2023-05-02T08:54:59;11.90;44.40
21580;DHT22;10951;59.656;9.666;2023-05-02T08:57:28;11.70;44.50
21580;DHT22;10951;59.656;9.666;2023-05-02T08:59:55;11.40;45.60
21580;DHT22;10951;59.656;9.666;2023-05-02T09:02:25;11.20;44.50
21580;DHT22;10951;59.656;9.666;2023-05-02T09:04:56;11.10;45.80
21580;DHT22;10951;59.656;9.666;2023-05-02T09:07:24;11.10;46.00
21580;DHT22;10951;59.656;9.666;2023-05-02T09:09:52;11.10;47.10
21580;DHT22;10951;59.656;9.666;2023-05-02T09:12:23;11.20;46.40
21580;DHT22;10951;59.656;9.666;2023-05-02T09:15:07;11.30;45.80
21580;DHT22;10951;59.656;9.666;2023-05-02T09:17:41;11.60;46.60
21580;DHT22;10951;59.656;9.666;2023-05-02T09:20:11;11.70;45.90
21580;DHT22;10951;59.656;9.666;2023-05-02T09:22:39;11.80;45.40
21580;DHT22;10951;59.656;9.666;2023-05-02T09:25:13;11.80;45.10
21580;DHT22;10951;59.656;9.666;2023-05-02T09:27:53;11.90;45.50
21580;DHT22;10951;59.656;9.666;2023-05-02T09:30:24;11.90;44.40
21580;DHT22;10951;59.656;9.666;2023-05-02T09:32:51;11.80;44.50
21580;DHT22;10951;59.656;9.666;2023-05-02T09:35:20;11.80;44.50
21580;DHT22;10951;59.656;9.666;2023-05-02T09:37:51;11.80;45.60
21580;DHT22;10951;59.656;9.666;2023-05-02T09:40:18;11.90;44.50
21580;DHT22;10951;59.656;9.666;2023-05-02T09:42:45;12.00;45.10
21580;DHT22;10951;59.656;9.666;2023-05-02T09:45:19;12.00;44.50
21580;DHT22;10951;59.656;9.666;2023-05-02T09:47:47;12.00;44.30
21580;DHT22;10951;59.656;9.666;2023-05-02T09:53:17;12.30;44.90
21580;DHT22;10951;59.656;9.666;2023-05-02T09:55:44;12.50;44.40
21580;DHT22;10951;59.656;9.666;2023-05-02T09:58:20;12.30;43.00
21580;DHT22;10951;59.656;9.666;2023-05-02T10:00:48;11.90;42.60
21580;DHT22;10951;59.656;9.666;2023-05-02T10:03:16;11.50;43.50
21580;DHT22;10951;59.656;9.666;2023-05-02T10:05:44;11.40;45.00
21580;DHT22;10951;59.656;9.666;2023-05-02T10:08:11;11.50;44.80
21580;DHT22;10951;59.656;9.666;2023-05-02T10:10:39;11.60;44.60
21580;DHT22;10951;59.656;9.666;2023-05-02T10:13:06;11.60;43.80
21580;DHT22;10951;59.656;9.666;2023-05-02T10:15:35;11.60;43.90
21580;DHT22;10951;59.656;9.666;2023-05-02T10:18:05;11.60;45.20
21580;DHT22;10951;59.656;9.666;2023-05-02T10:20:34;11.90;45.30
21580;DHT22;10951;59.656;9.666;2023-05-02T10:23:03;12.10;44.00
21580;DHT22;10951;59.656;9.666;2023-05-02T10:25:30;12.00;43.30
21580;DHT22;10951;59.656;9.666;2023-05-02T10:27:58;12.00;43.90
21580;DHT22;10951;59.656;9.666;2023-05-02T10:30:25;12.00;43.60
21580;DHT22;10951;59.656;9.666;2023-05-02T10:32:52;11.90;43.30
21580;DHT22;10951;59.656;9.666;2023-05-02T10:35:22;11.80;43.90
21580;DHT22;10951;59.656;9.666;2023-05-02T10:37:51;11.90;44.20
21580;DHT22;10951;59.656;9.666;2023-05-02T10:40:18;12.00;45.10
21580;DHT22;10951;59.656;9.666;2023-05-02T10:42:46;12.10;43.80
21580;DHT22;10951;59.656;9.666;2023-05-02T10:50:50;12.30;44.90
21580;DHT22;10951;59.656;9.666;2023-05-02T10:53:24;12.50;44.60
21580;DHT22;10951;59.656;9.666;2023-05-02T10:58:37;12.60;43.90
21580;DHT22;10951;59.656;9.666;2023-05-02T11:03:53;12.40;44.10
21580;DHT22;10951;59.656;9.666;2023-05-02T11:06:22;12.20;43.90
21580;DHT22;10951;59.656;9.666;2023-05-02T11:08:49;12.20;44.00
21580;DHT22;10951;59.656;9.666;2023-05-02T11:14:01;12.20;43.90
21580;DHT22;10951;59.656;9.666;2023-05-02T11:16:59;12.10;43.30
21580;DHT22;10951;59.656;9.666;2023-05-02T11:19:15;12.10;44.40
21580;DHT22;10951;59.656;9.666;2023-05-02T11:21:42;12.30;43.40
21580;DHT22;10951;59.656;9.666;2023-05-02T11:27:14;11.90;44.40
21580;DHT22;10951;59.656;9.666;2023-05-02T11:29:51;12.00;43.80
21580;DHT22;10951;59.656;9.666;2023-05-02T11:32:19;12.00;42.80
21580;DHT22;10951;59.656;9.666;2023-05-02T11:34:46;11.80;42.60
21580;DHT22;10951;59.656;9.666;2023-05-02T11:37:13;11.80;43.30
21580;DHT22;10951;59.656;9.666;2023-05-02T11:39:41;11.90;43.10
21580;DHT22;10951;59.656;9.666;2023-05-02T11:42:08;11.90;42.80
21580;DHT22;10951;59.656;9.666;2023-05-02T11:44:53;11.80;42.50
21580;DHT22;10951;59.656;9.666;2023-05-02T11:47:20;11.90;43.30
21580;DHT22;10951;59.656;9.666;2023-05-02T11:49:47;11.90;43.20
21580;DHT22;10951;59.656;9.666;2023-05-02T11:52:15;11.90;43.00
21580;DHT22;10951;59.656;9.666;2023-05-02T11:54:42;12.00;44.00
21580;DHT22;10951;59.656;9.666;2023-05-02T11:57:09;12.30;44.30
21580;DHT22;10951;59.656;9.666;2023-05-02T12:02:16;12.60;42.80
21580;DHT22;10951;59.656;9.666;2023-05-02T12:04:43;12.90;43.00
21580;DHT22;10951;59.656;9.666;2023-05-02T12:07:10;13.00;42.50
21580;DHT22;10951;59.656;9.666;2023-05-02T12:09:50;12.90;40.90
21580;DHT22;10951;59.656;9.666;2023-05-02T12:12:19;12.70;41.10
21580;DHT22;10951;59.656;9.666;2023-05-02T12:14:46;12.80;41.30
21580;DHT22;10951;59.656;9.666;2023-05-02T12:17:12;12.80;40.70
21580;DHT22;10951;59.656;9.666;2023-05-02T12:19:40;12.70;40.10
21580;DHT22;10951;59.656;9.666;2023-05-02T12:22:07;12.60;40.90
21580;DHT22;10951;59.656;9.666;2023-05-02T12:24:35;12.50;40.40
21580;DHT22;10951;59.656;9.666;2023-05-02T12:27:09;12.40;41.10
21580;DHT22;10951;59.656;9.666;2023-05-02T12:29:40;12.40;42.00
21580;DHT22;10951;59.656;9.666;2023-05-02T12:32:09;12.50;40.70
21580;DHT22;10951;59.656;9.666;2023-05-02T12:34:36;12.60;41.20
21580;DHT22;10951;59.656;9.666;2023-05-02T12:37:03;12.50;40.20
21580;DHT22;10951;59.656;9.666;2023-05-02T12:39:41;12.60;41.50
21580;DHT22;10951;59.656;9.666;2023-05-02T12:42:11;12.60;40.90
21580;DHT22;10951;59.656;9.666;2023-05-02T12:44:39;12.60;41.30
21580;DHT22;10951;59.656;9.666;2023-05-02T12:47:07;12.60;41.50
21580;DHT22;10951;59.656;9.666;2023-05-02T12:52:20;12.60;40.60
21580;DHT22;10951;59.656;9.666;2023-05-02T12:54:47;12.70;41.20
21580;DHT22;10951;59.656;9.666;2023-05-02T12:57:23;12.80;42.30
21580;DHT22;10951;59.656;9.666;2023-05-02T12:59:51;13.00;42.10
21580;DHT22;10951;59.656;9.666;2023-05-02T13:02:20;13.00;42.20
21580;DHT22;10951;59.656;9.666;2023-05-02T13:04:47;12.90;43.00
21580;DHT22;10951;59.656;9.666;2023-05-02T13:07:14;12.90;43.00
21580;DHT22;10951;59.656;9.666;2023-05-02T13:09:41;12.60;42.60
21580;DHT22;10951;59.656;9.666;2023-05-02T13:12:08;12.30;43.10
21580;DHT22;10951;59.656;9.666;2023-05-02T13:14:35;12.20;43.70
21580;DHT22;10951;59.656;9.666;2023-05-02T13:17:02;12.30;44.00
21580;DHT22;10951;59.656;9.666;2023-05-02T13:19:29;12.50;43.10
21580;DHT22;10951;59.656;9.666;2023-05-02T13:21:57;12.60;43.40
21580;DHT22;10951;59.656;9.666;2023-05-02T13:24:24;12.70;43.00
21580;DHT22;10951;59.656;9.666;2023-05-02T13:26:51;12.90;42.50
21580;DHT22;10951;59.656;9.666;2023-05-02T13:29:18;12.80;41.90
21580;DHT22;10951;59.656;9.666;2023-05-02T13:31:45;12.50;42.70
21580;DHT22;10951;59.656;9.666;2023-05-02T13:34:12;12.50;42.20
21580;DHT22;10951;59.656;9.666;2023-05-02T13:36:39;12.40;42.80
21580;DHT22;10951;59.656;9.666;2023-05-02T13:39:12;12.50;43.30
21580;DHT22;10951;59.656;9.666;2023-05-02T13:41:42;12.70;42.30
21580;DHT22;10951;59.656;9.666;2023-05-02T13:44:09;12.60;42.50
21580;DHT22;10951;59.656;9.666;2023-05-02T13:46:36;12.70;42.90
21580;DHT22;10951;59.656;9.666;2023-05-02T13:49:04;12.70;42.60
21580;DHT22;10951;59.656;9.666;2023-05-02T13:51:31;12.60;42.10
21580;DHT22;10951;59.656;9.666;2023-05-02T13:53:58;12.50;42.50
21580;DHT22;10951;59.656;9.666;2023-05-02T13:56:25;12.60;42.90
21580;DHT22;10951;59.656;9.666;2023-05-02T13:58:52;12.70;42.90
21580;DHT22;10951;59.656;9.666;2023-05-02T14:01:19;12.80;42.60
21580;DHT22;10951;59.656;9.666;2023-05-02T14:03:46;12.90;42.00
21580;DHT22;10951;59.656;9.666;2023-05-02T14:06:19;12.90;42.60
21580;DHT22;10951;59.656;9.666;2023-05-02T14:08:46;12.90;42.80
21580;DHT22;10951;59.656;9.666;2023-05-02T14:11:13;13.00;42.30
21580;DHT22;10951;59.656;9.666;2023-05-02T14:13:40;13.10;42.10
21580;DHT22;10951;59.656;9.666;2023-05-02T14:16:06;13.00;41.20
21580;DHT22;10951;59.656;9.666;2023-05-02T14:18:33;12.80;41.70
21580;DHT22;10951;59.656;9.666;2023-05-02T14:21:00;12.60;41.70
21580;DHT22;10951;59.656;9.666;2023-05-02T14:23:28;12.60;41.90
21580;DHT22;10951;59.656;9.666;2023-05-02T14:25:55;12.50;41.70
21580;DHT22;10951;59.656;9.666;2023-05-02T14:28:22;12.50;42.30
21580;DHT22;10951;59.656;9.666;2023-05-02T14:30:49;12.60;42.00
21580;DHT22;10951;59.656;9.666;2023-05-02T14:33:16;12.50;41.60
21580;DHT22;10951;59.656;9.666;2023-05-02T14:35:43;12.40;41.80
21580;DHT22;10951;59.656;9.666;2023-05-02T14:38:10;12.50;42.00
21580;DHT22;10951;59.656;9.666;2023-05-02T14:40:39;12.50;41.40
21580;DHT22;10951;59.656;9.666;2023-05-02T14:43:06;12.40;41.30
21580;DHT22;10951;59.656;9.666;2023-05-02T14:45:33;12.40;41.50
21580;DHT22;10951;59.656;9.666;2023-05-02T14:48:00;12.40;41.70
21580;DHT22;10951;59.656;9.666;2023-05-02T14:50:27;12.40;42.10
21580;DHT22;10951;59.656;9.666;2023-05-02T14:52:54;12.30;41.90
21580;DHT22;10951;59.656;9.666;2023-05-02T14:55:21;12.40;42.10
21580;DHT22;10951;59.656;9.666;2023-05-02T14:57:48;12.40;42.20
21580;DHT22;10951;59.656;9.666;2023-05-02T15:00:16;12.40;42.00
21580;DHT22;10951;59.656;9.666;2023-05-02T15:02:43;12.40;41.70
21580;DHT22;10951;59.656;9.666;2023-05-02T15:05:10;12.20;42.30
21580;DHT22;10951;59.656;9.666;2023-05-02T15:07:38;12.20;42.90
21580;DHT22;10951;59.656;9.666;2023-05-02T15:10:05;12.30;41.80
21580;DHT22;10951;59.656;9.666;2023-05-02T15:12:32;12.30;41.50
21580;DHT22;10951;59.656;9.666;2023-05-02T15:14:59;12.30;41.50
21580;DHT22;10951;59.656;9.666;2023-05-02T15:17:26;12.30;41.90
21580;DHT22;10951;59.656;9.666;2023-05-02T15:19:53;12.30;41.20
21580;DHT22;10951;59.656;9.666;2023-05-02T15:22:23;12.30;41.00
21580;DHT22;10951;59.656;9.666;2023-05-02T15:24:51;12.30;41.10
21580;DHT22;10951;59.656;9.666;2023-05-02T15:27:18;12.20;41.10
21580;DHT22;10951;59.656;9.666;2023-05-02T15:29:45;12.10;40.80
21580;DHT22;10951;59.656;9.666;2023-05-02T15:32:12;11.80;40.90
21580;DHT22;10951;59.656;9.666;2023-05-02T15:34:39;11.80;41.00
21580;DHT22;10951;59.656;9.666;2023-05-02T15:37:06;11.80;41.40
21580;DHT22;10951;59.656;9.666;2023-05-02T15:39:33;11.90;41.90
21580;DHT22;10951;59.656;9.666;2023-05-02T15:42:03;12.00;42.10
21580;DHT22;10951;59.656;9.666;2023-05-02T15:44:34;12.20;42.10
21580;DHT22;10951;59.656;9.666;2023-05-02T15:47:02;12.40;41.50
21580;DHT22;10951;59.656;9.666;2023-05-02T15:49:29;12.30;41.70
21580;DHT22;10951;59.656;9.666;2023-05-02T15:51:59;12.30;41.20
21580;DHT22;10951;59.656;9.666;2023-05-02T15:54:26;12.20;41.70
21580;DHT22;10951;59.656;9.666;2023-05-02T15:56:53;12.20;41.70
21580;DHT22;10951;59.656;9.666;2023-05-02T15:59:19;12.20;41.90
21580;DHT22;10951;59.656;9.666;2023-05-02T16:01:46;12.30;41.70
21580;DHT22;10951;59.656;9.666;2023-05-02T16:04:13;12.30;41.80
21580;DHT22;10951;59.656;9.666;2023-05-02T16:06:41;12.20;41.80
21580;DHT22;10951;59.656;9.666;2023-05-02T16:09:08;12.20;41.60
21580;DHT22;10951;59.656;9.666;2023-05-02T16:11:35;12.20;42.20
21580;DHT22;10951;59.656;9.666;2023-05-02T16:14:02;12.20;42.60
21580;DHT22;10951;59.656;9.666;2023-05-02T16:16:29;12.20;42.70
21580;DHT22;10951;59.656;9.666;2023-05-02T16:18:56;12.20;42.50
21580;DHT22;10951;59.656;9.666;2023-05-02T16:21:23;12.10;42.60
21580;DHT22;10951;59.656;9.666;2023-05-02T16:23:50;12.10;42.70